Time;durP1;ratioP1;P1;durP2;ratioP2;P2;SDS_P1;SDS_P2;PMS_P1;PMS_P2;Temp;Humidity;BMP_temperature;BMP_pressure;BME280_temperature;BME280_humidity;BME280_pressure;Samples;Min_cycle;Max_cycle;Signal;HPM_P1;HPM_P2
2021/03/11 00:01:03;;;;;;;107.07;57.25;;;;;;;1.19;67.83;100271.09;2804570;84;21165;-61
2021/03/11 00:05:10;;;;;;;83.47;49.33;;;;;;;1.19;67.23;100243.57;2804600;84;21218;-63
2021/03/11 00:09:12;;;;;;;81.02;46.98;;;;;;;1.34;66.89;100260.83;2804559;84;21185;-63
2021/03/11 00:13:15;;;;;;;72.47;42.38;;;;;;;1.38;66.78;100255.39;2804769;84;21611;-63
2021/03/11 00:17:18;;;;;;;73.12;39.85;;;;;;;1.37;66.81;100244.97;2804529;84;21193;-61
2021/03/11 00:21:22;;;;;;;74.42;42.70;;;;;;;1.38;66.71;100240.14;2805541;84;21165;-61
2021/03/11 00:25:29;;;;;;;74.35;42.23;;;;;;;1.25;66.96;100201.80;2804840;84;21165;-62
2021/03/11 00:29:32;;;;;;;85.70;45.95;;;;;;;1.25;66.96;100201.80;2805048;84;21169;-62
2021/03/11 00:33:34;;;;;;;83.45;43.90;;;;;;;1.41;67.01;100216.41;2804720;84;21169;-62
2021/03/11 00:37:39;;;;;;;74.85;42.53;;;;;;;1.42;67.09;100216.80;2804922;84;21209;-63
2021/03/11 00:41:42;;;;;;;67.05;33.90;;;;;;;1.45;67.59;100214.48;2804713;84;21137;-62
2021/03/11 00:45:47;;;;;;;66.33;31.37;;;;;;;1.45;67.59;100214.48;2805025;84;21133;-61
2021/03/11 00:49:49;;;;;;;76.55;37.15;;;;;;;1.47;68.03;100214.81;2805299;84;21181;-61
2021/03/11 00:53:54;;;;;;;72.03;40.10;;;;;;;1.49;68.09;100190.69;2804671;84;21207;-62
2021/03/11 00:57:56;;;;;;;79.47;43.75;;;;;;;1.49;68.09;100190.69;2804848;84;21134;-62
2021/03/11 01:01:59;;;;;;;81.85;44.93;;;;;;;1.51;68.40;100188.84;2799236;84;21171;-61
2021/03/11 01:06:02;;;;;;;72.55;37.25;;;;;;;1.54;68.28;100179.52;2758205;85;21183;-61
2021/03/11 01:10:07;;;;;;;66.33;35.88;;;;;;;1.64;68.19;100188.29;2758024;86;21184;-61
2021/03/11 01:14:10;;;;;;;64.20;31.90;;;;;;;1.65;68.28;100174.25;2758392;86;21171;-62
2021/03/11 01:18:16;;;;;;;51.83;32.45;;;;;;;1.65;68.45;100169.84;2758363;85;21184;-62
2021/03/11 01:22:19;;;;;;;53.50;28.57;;;;;;;1.63;68.39;100164.30;2758687;86;21144;-61
2021/03/11 01:26:21;;;;;;;46.33;27.80;;;;;;;1.67;68.16;100152.30;2758611;86;21151;-62
2021/03/11 01:30:25;;;;;;;59.08;27.07;;;;;;;1.67;68.29;100149.67;2758245;85;21188;-62
2021/03/11 01:34:28;;;;;;;47.78;31.65;;;;;;;1.71;68.41;100138.55;2754212;86;21175;-62
2021/03/11 01:38:31;;;;;;;51.65;33.80;;;;;;;1.75;68.40;100125.68;2737390;87;21172;-62
2021/03/11 01:42:36;;;;;;;45.85;29.00;;;;;;;1.83;68.44;100130.11;2737262;86;21168;-63
2021/03/11 01:46:39;;;;;;;52.00;33.65;;;;;;;1.89;68.46;100119.80;2737357;87;21132;-63
2021/03/11 01:50:42;;;;;;;59.55;32.00;;;;;;;1.92;68.61;100101.72;2711840;87;21181;-62
2021/03/11 01:54:45;;;;;;;57.40;30.95;;;;;;;1.93;68.64;100096.41;2737649;87;21199;-62
2021/03/11 01:58:48;;;;;;;49.90;30.40;;;;;;;1.96;68.87;100093.64;2737399;85;21172;-62
2021/03/11 02:02:52;;;;;;;57.38;32.17;;;;;;;1.99;69.23;100079.53;2737243;87;21171;-62
2021/03/11 02:06:55;;;;;;;51.65;26.50;;;;;;;2.04;69.20;100068.34;2736989;87;21518;-61
2021/03/11 02:10:59;;;;;;;43.38;30.45;;;;;;;2.11;69.04;100063.16;2711813;87;21189;-63
2021/03/11 02:15:08;;;;;;;47.88;31.05;;;;;;;2.19;68.96;100061.94;2737496;84;21147;-62
2021/03/11 02:24:33;;;;;;;55.03;30.80;;;;;;;2.25;68.72;100069.02;2793954;84;21596;-62
2021/03/11 02:29:08;;;;;;;56.42;32.70;;;;;;;2.27;68.83;100062.39;2781594;85;21577;-62
2021/03/11 02:33:13;;;;;;;50.40;29.70;;;;;;;2.30;68.62;100048.27;2815256;84;21177;-63
2021/03/11 02:37:25;;;;;;;48.68;31.62;;;;;;;2.32;68.62;100049.03;2815447;84;21111;-61
2021/03/11 02:41:28;;;;;;;42.53;27.50;;;;;;;2.34;68.62;100040.61;2813175;84;21182;-62
2021/03/11 02:45:33;;;;;;;56.08;29.70;;;;;;;2.37;68.52;100022.94;2814866;84;21170;-62
2021/03/11 02:49:38;;;;;;;42.75;28.32;;;;;;;2.38;68.57;100011.51;2812811;84;21174;-63
2021/03/11 02:53:41;;;;;;;48.70;26.93;;;;;;;2.39;68.53;100013.20;2813158;84;21168;-62
2021/03/11 02:57:44;;;;;;;53.02;31.68;;;;;;;2.40;68.57;99993.03;2779563;85;21118;-62
2021/03/11 03:01:48;;;;;;;40.67;27.77;;;;;;;2.45;68.54;99994.11;2779578;85;21174;-61
2021/03/11 03:05:54;;;;;;;36.68;23.42;;;;;;;2.41;68.45;99982.91;2779546;85;21163;-62
2021/03/11 03:09:58;;;;;;;41.58;26.35;;;;;;;2.36;68.63;99970.50;2731803;87;21612;-61
2021/03/11 03:14:02;;;;;;;48.20;29.37;;;;;;;2.33;68.71;99958.38;2763876;86;21190;-62
2021/03/11 03:18:05;;;;;;;46.00;27.77;;;;;;;2.41;68.56;99948.78;2731515;87;21193;-61
2021/03/11 03:22:08;;;;;;;48.02;28.73;;;;;;;2.45;68.39;99940.29;2761578;85;21169;-61
2021/03/11 03:26:12;;;;;;;45.48;26.97;;;;;;;2.50;68.22;99936.94;2758764;86;21126;-61
2021/03/11 03:30:18;;;;;;;50.67;28.35;;;;;;;2.56;67.99;99930.06;2718687;87;21181;-62
2021/03/11 03:34:21;;;;;;;37.00;28.75;;;;;;;2.65;67.88;99917.73;2758467;86;21158;-61
2021/03/11 03:38:25;;;;;;;38.83;25.37;;;;;;;2.71;67.52;99912.14;2718925;87;21607;-61
2021/03/11 03:42:31;;;;;;;46.92;25.15;;;;;;;2.75;67.37;99898.38;2795136;84;21180;-62
2021/03/11 03:46:35;;;;;;;46.08;28.80;;;;;;;2.78;67.10;99897.38;2741530;84;21151;-62
2021/03/11 03:50:39;;;;;;;41.80;26.52;;;;;;;2.82;67.18;99892.32;2807498;84;21150;-61
2021/03/11 03:54:44;;;;;;;41.08;29.92;;;;;;;2.87;66.97;99871.05;2807566;84;21504;-62
2021/03/11 03:58:48;;;;;;;36.48;25.20;;;;;;;2.92;66.93;99871.15;2807481;84;21609;-62
2021/03/11 04:02:54;;;;;;;43.28;28.23;;;;;;;2.94;66.78;99869.28;2822804;84;21128;-61
2021/03/11 04:07:00;;;;;;;38.88;25.08;;;;;;;2.97;66.54;99870.44;2831840;84;21140;-62
2021/03/11 04:11:04;;;;;;;49.18;26.00;;;;;;;3.00;66.14;99872.03;2805517;84;21123;-62
2021/03/11 04:15:10;;;;;;;41.48;22.82;;;;;;;3.02;65.60;99869.33;2831920;84;21167;-64
2021/03/11 04:19:13;;;;;;;44.58;26.82;;;;;;;3.08;65.31;99862.39;2810789;84;21632;-62
2021/03/11 04:23:20;;;;;;;46.53;30.02;;;;;;;3.12;64.82;99862.59;2781028;84;21205;-61
2021/03/11 04:27:23;;;;;;;42.40;24.37;;;;;;;3.15;64.31;99853.24;2807486;84;21175;-62
2021/03/11 04:31:28;;;;;;;32.63;20.30;;;;;;;3.13;64.44;99857.27;2807618;84;21144;-62
2021/03/11 04:35:31;;;;;;;39.05;24.87;;;;;;;3.10;64.39;99853.95;2807836;84;21140;-62
2021/03/11 04:39:35;;;;;;;45.17;26.23;;;;;;;3.05;64.56;99834.98;2807699;84;21172;-63
2021/03/11 04:43:41;;;;;;;30.80;21.33;;;;;;;3.08;64.69;99830.86;2807553;84;21631;-63
2021/03/11 04:47:45;;;;;;;41.08;25.12;;;;;;;3.11;64.55;99813.14;2807862;84;21642;-61
2021/03/11 04:51:48;;;;;;;42.58;24.85;;;;;;;3.19;64.27;99802.63;2807545;84;21152;-62
2021/03/11 04:55:52;;;;;;;37.78;23.67;;;;;;;3.23;64.24;99796.25;2807597;84;21180;-63
2021/03/11 05:00:01;;;;;;;53.40;28.95;;;;;;;3.29;64.19;99805.94;2807767;84;21192;-64
2021/03/11 05:04:06;;;;;;;41.58;27.37;;;;;;;3.35;64.10;99793.39;2807667;84;21166;-62
2021/03/11 05:08:11;;;;;;;40.23;25.68;;;;;;;3.39;64.14;99783.06;2808429;84;21612;-63
2021/03/11 05:12:13;;;;;;;42.60;26.33;;;;;;;3.42;64.11;99779.76;2807458;84;21134;-64
2021/03/11 05:16:17;;;;;;;39.98;25.12;;;;;;;3.46;64.04;99770.39;2807557;84;21194;-62
2021/03/11 05:20:21;;;;;;;41.02;24.67;;;;;;;3.42;64.24;99762.66;2807818;84;21170;-62
2021/03/11 05:24:24;;;;;;;42.80;26.45;;;;;;;3.48;64.24;99747.48;2807646;84;21215;-62
2021/03/11 05:28:28;;;;;;;51.45;28.20;;;;;;;3.52;64.22;99737.14;2804548;84;21158;-62
2021/03/11 05:32:31;;;;;;;43.85;27.80;;;;;;;3.55;64.25;99731.23;2807490;84;21174;-62
2021/03/11 05:36:35;;;;;;;31.75;21.00;;;;;;;3.60;64.04;99719.58;2807576;84;21107;-64
2021/03/11 05:40:40;;;;;;;42.98;27.05;;;;;;;3.65;64.00;99714.87;2807883;84;21182;-64
2021/03/11 05:44:44;;;;;;;44.55;24.50;;;;;;;3.68;63.83;99700.20;2807567;84;21161;-63
2021/03/11 05:48:50;;;;;;;47.67;28.00;;;;;;;3.73;64.24;99693.34;2807969;83;21143;-62
2021/03/11 05:52:57;;;;;;;61.80;34.35;;;;;;;3.73;64.38;99681.52;2807571;84;21195;-62
2021/03/11 05:57:01;;;;;;;39.03;20.68;;;;;;;3.70;64.57;99672.87;2807378;84;21122;-63
2021/03/11 06:01:05;;;;;;;42.95;24.90;;;;;;;3.68;64.93;99662.06;2807495;84;21134;-63
2021/03/11 06:05:14;;;;;;;41.00;26.17;;;;;;;3.70;64.93;99661.48;2807529;84;21170;-64
2021/03/11 06:09:18;;;;;;;38.05;23.52;;;;;;;3.69;64.94;99666.37;2807361;84;21150;-63
2021/03/11 06:13:24;;;;;;;37.45;24.10;;;;;;;3.68;64.96;99644.51;2807717;84;21202;-63
2021/03/11 06:17:31;;;;;;;34.35;23.35;;;;;;;3.72;65.10;99633.30;2807905;84;21174;-62
2021/03/11 06:21:34;;;;;;;39.25;23.47;;;;;;;3.79;65.51;99629.81;2807787;84;21178;-63
2021/03/11 06:25:39;;;;;;;32.80;22.40;;;;;;;3.88;65.71;99628.37;2807488;84;21200;-63
2021/03/11 06:29:42;;;;;;;43.80;28.25;;;;;;;3.99;65.80;99616.70;2808146;84;21166;-62
2021/03/11 06:33:46;;;;;;;32.13;21.10;;;;;;;4.11;65.58;99602.71;2807639;84;21171;-61
2021/03/11 06:37:50;;;;;;;43.50;28.73;;;;;;;4.25;65.50;99597.87;2807560;84;29278;-62
2021/03/11 06:41:53;;;;;;;67.03;32.73;;;;;;;4.42;65.42;99593.23;2807623;84;21170;-62
2021/03/11 06:46:09;;;;;;;41.50;22.77;;;;;;;4.61;65.15;99584.09;2807477;83;21582;-62
2021/03/11 06:50:13;;;;;;;42.17;20.40;;;;;;;4.77;64.82;99570.73;2807852;84;21151;-61
2021/03/11 06:54:16;;;;;;;33.25;23.02;;;;;;;4.92;64.74;99566.17;2807839;84;21174;-62
2021/03/11 06:58:24;;;;;;;35.08;21.23;;;;;;;5.03;64.19;99570.70;2807587;84;21183;-63
2021/03/11 07:02:28;;;;;;;25.65;21.27;;;;;;;5.11;63.81;99568.34;2807247;84;21163;-64
2021/03/11 07:06:35;;;;;;;37.70;20.45;;;;;;;5.18;63.70;99557.75;2807629;84;21115;-61
2021/03/11 07:10:39;;;;;;;36.03;21.30;;;;;;;5.23;63.60;99552.98;2816191;84;21149;-63
2021/03/11 07:14:42;;;;;;;31.05;22.07;;;;;;;5.33;63.55;99540.48;2816461;84;21177;-62
2021/03/11 07:18:47;;;;;;;44.83;23.02;;;;;;;5.38;63.43;99540.48;2816376;84;21160;-64
2021/03/11 07:23:09;;;;;;;38.48;25.45;;;;;;;5.44;63.41;99544.48;2814080;84;21140;-64
2021/03/11 07:27:13;;;;;;;33.02;22.67;;;;;;;5.52;63.11;99539.97;2809897;84;21156;-62
2021/03/11 07:31:21;;;;;;;31.68;19.60;;;;;;;5.68;62.64;99532.62;2810082;84;21152;-61
2021/03/11 07:35:30;;;;;;;29.85;20.12;;;;;;;5.78;62.46;99519.59;2808983;84;21144;-62
2021/03/11 07:39:40;;;;;;;23.83;13.90;;;;;;;5.82;62.13;99505.70;2810245;84;21152;-61
2021/03/11 07:43:43;;;;;;;27.25;19.70;;;;;;;5.79;61.91;99496.20;2815408;84;21115;-62
2021/03/11 07:47:49;;;;;;;39.53;24.82;;;;;;;5.92;61.88;99484.73;2818037;84;21176;-63
2021/03/11 07:51:52;;;;;;;41.13;18.40;;;;;;;6.01;62.32;99488.02;2818113;84;21177;-61
2021/03/11 07:55:57;;;;;;;33.30;21.00;;;;;;;6.07;62.58;99479.62;2817665;84;22202;-61
2021/03/11 08:00:03;;;;;;;31.45;21.27;;;;;;;6.13;62.53;99470.39;2815110;84;21756;-62
2021/03/11 08:04:06;;;;;;;28.50;18.35;;;;;;;6.24;62.59;99465.14;2810524;84;21606;-63
2021/03/11 08:08:30;;;;;;;31.80;17.65;;;;;;;6.37;62.60;99439.94;2810335;84;21101;-64
2021/03/11 08:12:40;;;;;;;38.42;21.52;;;;;;;6.43;62.53;99418.81;2810356;84;21172;-62
2021/03/11 08:16:43;;;;;;;37.00;20.62;;;;;;;6.47;62.84;99410.14;2810319;84;21587;-64
2021/03/11 08:20:46;;;;;;;31.17;19.32;;;;;;;6.52;62.87;99406.68;2810135;84;21164;-62
2021/03/11 08:24:50;;;;;;;33.75;21.48;;;;;;;6.60;62.95;99400.29;2810393;84;21145;-62
2021/03/11 08:28:54;;;;;;;32.58;20.52;;;;;;;6.66;63.33;99391.86;2809922;84;21196;-61
2021/03/11 08:32:57;;;;;;;43.78;26.27;;;;;;;6.66;63.87;99385.25;2810264;84;21181;-63
2021/03/11 08:37:22;;;;;;;39.90;23.75;;;;;;;6.70;64.46;99376.14;2810064;84;21160;-64
2021/03/11 08:41:32;;;;;;;39.75;24.30;;;;;;;6.68;64.93;99367.97;2810462;84;21153;-63
2021/03/11 08:45:41;;;;;;;32.90;20.23;;;;;;;6.60;65.57;99337.37;2810453;84;21160;-64
2021/03/11 08:49:44;;;;;;;40.20;24.37;;;;;;;6.57;66.05;99330.52;2810126;84;21132;-61
2021/03/11 08:54:00;;;;;;;38.20;24.55;;;;;;;6.63;66.20;99314.16;2810332;84;21145;-62
2021/03/11 08:58:05;;;;;;;34.87;21.13;;;;;;;6.70;65.42;99304.78;2810512;84;21185;-62
2021/03/11 09:02:31;;;;;;;40.88;23.52;;;;;;;6.76;64.66;99296.81;2790288;84;21638;-64
2021/03/11 09:06:56;;;;;;;38.38;26.17;;;;;;;6.85;65.01;99300.50;2810311;84;21156;-61
2021/03/11 09:11:14;;;;;;;32.65;22.40;;;;;;;6.93;64.34;99292.80;2810191;84;21471;-62
2021/03/11 09:15:18;;;;;;;34.85;21.80;;;;;;;7.02;63.96;99296.48;2810242;84;21157;-62
2021/03/11 09:19:21;;;;;;;30.20;22.15;;;;;;;7.07;64.04;99294.77;2810285;84;21168;-61
2021/03/11 09:23:40;;;;;;;29.30;18.82;;;;;;;7.13;63.58;99287.16;2811259;84;21703;-62
2021/03/11 09:28:01;;;;;;;31.42;21.50;;;;;;;7.11;63.56;99281.66;2807701;83;21255;-61
2021/03/11 09:32:06;;;;;;;36.30;23.05;;;;;;;7.15;62.94;99273.32;2803838;83;21151;-63
2021/03/11 09:36:10;;;;;;;31.70;20.70;;;;;;;7.19;62.57;99285.81;2794931;83;21552;-62
2021/03/11 09:40:35;;;;;;;35.30;23.10;;;;;;;7.23;62.08;99269.21;2807573;83;21145;-62
2021/03/11 09:44:44;;;;;;;42.73;24.60;;;;;;;7.29;61.97;99276.63;2807015;83;21615;-63
2021/03/11 09:48:53;;;;;;;26.87;20.85;;;;;;;7.35;61.94;99280.56;2807774;83;21145;-62
2021/03/11 09:52:59;;;;;;;29.37;20.05;;;;;;;7.36;61.90;99269.01;2807727;84;21144;-64
2021/03/11 09:57:02;;;;;;;34.60;20.68;;;;;;;7.40;62.12;99263.80;2807434;83;21190;-62
2021/03/11 10:01:05;;;;;;;34.43;22.45;;;;;;;7.47;62.77;99243.81;2807564;84;21138;-63
2021/03/11 10:05:10;;;;;;;33.90;20.27;;;;;;;7.49;63.11;99243.66;2807527;84;21174;-62
2021/03/11 10:09:13;;;;;;;35.75;20.50;;;;;;;7.52;63.70;99219.11;2807519;84;21151;-64
2021/03/11 10:13:37;;;;;;;33.20;21.57;;;;;;;7.50;64.21;99219.72;2807558;84;21167;-64
2021/03/11 10:17:43;;;;;;;32.98;21.00;;;;;;;7.51;64.11;99220.08;2807554;84;21191;-62
2021/03/11 10:22:06;;;;;;;32.28;19.80;;;;;;;7.51;64.09;99214.78;2807508;84;21150;-64
2021/03/11 10:26:29;;;;;;;30.85;18.30;;;;;;;7.47;64.35;99214.70;2807504;84;21170;-60
2021/03/11 10:30:33;;;;;;;24.25;16.05;;;;;;;7.47;64.87;99202.80;2807870;84;21134;-62
2021/03/11 10:34:50;;;;;;;29.12;19.00;;;;;;;7.38;67.37;99185.91;2807550;84;21168;-63
2021/03/11 10:39:05;;;;;;;31.35;22.10;;;;;;;7.32;68.79;99176.33;2807742;84;21182;-63
2021/03/11 10:43:22;;;;;;;32.55;21.55;;;;;;;7.25;69.69;99163.61;2807502;84;21171;-61
2021/03/11 10:47:26;;;;;;;38.05;21.85;;;;;;;7.22;69.62;99164.38;2807454;84;21174;-62
2021/03/11 10:51:32;;;;;;;34.45;21.40;;;;;;;7.25;69.88;99175.52;2807738;84;21146;-63
2021/03/11 10:55:38;;;;;;;28.12;17.92;;;;;;;7.26;70.02;99166.61;2807439;84;21186;-63
2021/03/11 10:59:55;;;;;;;33.48;22.05;;;;;;;7.25;70.12;99151.70;2807783;84;21115;-63
2021/03/11 11:03:59;;;;;;;38.17;22.60;;;;;;;7.35;69.68;99160.19;2807314;83;21169;-65
2021/03/11 11:08:07;;;;;;;39.33;24.67;;;;;;;7.42;70.11;99111.91;2808630;83;21180;-62
2021/03/11 11:12:17;;;;;;;32.78;22.48;;;;;;;7.45;70.46;99090.93;2816177;84;21659;-63
2021/03/11 11:16:20;;;;;;;26.00;19.92;;;;;;;7.50;69.86;99105.09;2809892;84;21137;-63
2021/03/11 11:20:24;;;;;;;30.97;21.75;;;;;;;7.52;69.43;99095.20;2807087;84;21161;-63
2021/03/11 11:24:27;;;;;;;28.83;20.35;;;;;;;7.58;69.31;99089.39;2797172;84;21140;-62
2021/03/11 11:28:32;;;;;;;24.57;18.73;;;;;;;7.61;69.10;99080.31;2784849;85;21598;-61
2021/03/11 11:32:36;;;;;;;21.82;19.25;;;;;;;7.67;69.19;99058.62;2785264;85;21598;-61
2021/03/11 11:36:41;;;;;;;26.00;19.12;;;;;;;7.75;68.41;99068.02;2785033;85;21394;-61
2021/03/11 11:40:44;;;;;;;16.02;13.22;;;;;;;7.80;68.04;99063.14;2785036;85;21156;-60
2021/03/11 11:44:51;;;;;;;20.45;13.62;;;;;;;7.82;67.84;99063.83;2771776;85;21463;-62
2021/03/11 11:48:54;;;;;;;16.25;12.80;;;;;;;7.83;68.78;99047.48;2771043;85;21214;-61
2021/03/11 11:52:58;;;;;;;17.05;14.85;;;;;;;7.84;68.66;99031.94;2771067;85;21176;-60
2021/03/11 11:57:01;;;;;;;15.85;10.82;;;;;;;7.80;68.50;99022.61;2768896;85;21124;-62
2021/03/11 12:01:06;;;;;;;16.37;11.85;;;;;;;7.79;68.65;99029.70;2767137;85;21178;-60
2021/03/11 12:05:12;;;;;;;17.50;13.93;;;;;;;7.85;70.37;99015.90;2764328;85;21164;-61
2021/03/11 12:09:15;;;;;;;16.60;12.30;;;;;;;7.93;71.95;98999.82;2738664;86;21384;-62
2021/03/11 12:13:19;;;;;;;17.60;11.75;;;;;;;7.96;72.01;99002.18;2759814;85;21148;-62
2021/03/11 12:17:21;;;;;;;17.80;13.03;;;;;;;7.98;72.08;98998.90;2759913;85;21620;-61
2021/03/11 12:21:25;;;;;;;16.82;12.43;;;;;;;8.02;71.79;98997.63;2759429;85;21691;-60
2021/03/11 12:25:28;;;;;;;20.77;12.07;;;;;;;7.99;71.38;98995.27;2763561;83;21192;-61
2021/03/11 12:29:30;;;;;;;17.02;11.73;;;;;;;7.94;71.31;98990.39;2761549;85;21105;-62
2021/03/11 12:33:34;;;;;;;16.37;9.93;;;;;;;7.89;71.29;98971.95;2781942;85;21200;-61
2021/03/11 12:37:40;;;;;;;13.30;10.43;;;;;;;7.84;71.44;98969.72;2743163;85;21176;-61
2021/03/11 12:41:43;;;;;;;17.12;9.95;;;;;;;7.81;71.50;98956.27;2738387;86;21532;-62
2021/03/11 12:45:46;;;;;;;15.03;9.93;;;;;;;7.82;71.47;98948.67;2746527;85;21629;-64
2021/03/11 12:49:49;;;;;;;16.67;9.08;;;;;;;7.81;71.78;98945.68;2785048;85;21188;-62
2021/03/11 12:53:53;;;;;;;10.82;8.58;;;;;;;7.83;72.54;98939.75;2762311;85;21193;-62
2021/03/11 12:57:56;;;;;;;12.05;9.83;;;;;;;7.86;74.09;98955.38;2753843;85;21228;-62
2021/03/11 13:01:59;;;;;;;10.75;7.53;;;;;;;7.78;75.33;98938.02;2767116;85;21189;-61
2021/03/11 13:06:03;;;;;;;16.30;11.43;;;;;;;7.72;76.02;98939.41;2757241;85;21137;-60
2021/03/11 13:10:08;;;;;;;18.17;14.38;;;;;;;7.71;76.82;98946.19;2775435;85;21189;-62
2021/03/11 13:14:11;;;;;;;13.20;11.23;;;;;;;7.70;77.39;98955.92;2746478;85;21153;-61
2021/03/11 13:18:14;;;;;;;17.62;11.95;;;;;;;7.67;78.20;98955.39;2748545;85;21595;-62
2021/03/11 13:22:27;;;;;;;21.30;13.55;;;;;;;7.63;78.52;98961.92;2764134;85;21209;-60
2021/03/11 13:26:32;;;;;;;24.05;12.98;;;;;;;7.62;79.07;98945.69;2797164;83;21195;-62
2021/03/11 13:30:38;;;;;;;25.05;13.13;;;;;;;7.60;79.29;98929.97;2804762;84;21164;-61
2021/03/11 13:34:43;;;;;;;20.08;14.20;;;;;;;7.57;80.01;98924.45;2807118;83;21171;-61
2021/03/11 13:38:46;;;;;;;21.50;15.15;;;;;;;7.54;79.87;98931.36;2807408;83;21169;-61
2021/03/11 13:42:49;;;;;;;22.52;15.72;;;;;;;7.58;79.16;98919.52;2803460;83;21112;-62
2021/03/11 13:46:52;;;;;;;18.92;14.83;;;;;;;7.53;78.64;98923.08;2806995;84;21172;-61
2021/03/11 13:50:57;;;;;;;26.12;16.48;;;;;;;7.49;78.60;98915.07;2807483;84;21146;-61
2021/03/11 13:55:00;;;;;;;19.55;14.53;;;;;;;7.46;78.98;98906.06;2807541;84;21193;-61
2021/03/11 13:59:03;;;;;;;20.48;15.03;;;;;;;7.48;78.54;98888.74;2807468;83;21133;-62
2021/03/11 14:03:07;;;;;;;19.67;15.32;;;;;;;7.45;78.24;98866.53;2807592;84;21135;-61
2021/03/11 14:07:10;;;;;;;21.73;15.10;;;;;;;7.47;78.29;98848.70;2807391;84;22282;-61
2021/03/11 14:11:13;;;;;;;22.27;13.65;;;;;;;7.45;77.67;98827.67;2807449;84;21174;-59
2021/03/11 14:15:17;;;;;;;21.12;14.93;;;;;;;7.45;77.67;98809.15;2808013;84;21170;-60
2021/03/11 14:19:20;;;;;;;15.90;11.15;;;;;;;7.43;77.71;98811.95;2807423;84;21189;-60
2021/03/11 14:23:23;;;;;;;17.80;13.05;;;;;;;7.47;77.43;98829.71;2807987;84;21181;-60
2021/03/11 14:27:26;;;;;;;19.62;15.13;;;;;;;7.46;77.14;98828.52;2812059;84;21173;-61
2021/03/11 14:31:29;;;;;;;18.87;13.68;;;;;;;7.47;77.01;98812.98;2812169;84;22270;-61
2021/03/11 14:35:35;;;;;;;24.67;15.08;;;;;;;7.47;76.92;98811.66;2809381;84;21139;-60
2021/03/11 14:39:38;;;;;;;17.42;12.37;;;;;;;7.49;76.98;98809.23;2812132;84;21170;-60
2021/03/11 14:43:41;;;;;;;14.20;11.45;;;;;;;7.55;76.65;98795.42;2812139;84;21166;-61
2021/03/11 14:47:44;;;;;;;17.30;11.95;;;;;;;7.61;76.06;98783.91;2812219;83;21666;-61
2021/03/11 14:51:47;;;;;;;17.02;12.00;;;;;;;7.66;76.33;98767.95;2812479;84;21170;-61
2021/03/11 14:55:51;;;;;;;12.13;9.25;;;;;;;7.78;74.90;98767.28;2812447;84;21170;-60
2021/03/11 14:59:54;;;;;;;14.93;12.00;;;;;;;7.81;74.92;98758.23;2812311;84;21199;-62
2021/03/11 15:03:58;;;;;;;19.40;12.25;;;;;;;7.80;74.67;98722.97;2812570;84;21171;-60
2021/03/11 15:08:01;;;;;;;22.87;14.13;;;;;;;7.83;74.34;98740.38;2812725;84;21182;-61
2021/03/11 15:12:06;;;;;;;20.32;12.68;;;;;;;7.91;74.34;98731.70;2812029;84;21463;-60
2021/03/11 15:16:09;;;;;;;14.20;11.05;;;;;;;8.03;74.34;98722.56;2812228;84;21158;-61
2021/03/11 15:20:14;;;;;;;9.63;7.60;;;;;;;8.11;74.07;98718.70;2812242;84;21174;-60
2021/03/11 15:24:17;;;;;;;8.35;7.12;;;;;;;8.25;73.53;98717.83;2811698;84;21554;-60
2021/03/11 15:28:21;;;;;;;8.50;6.50;;;;;;;8.36;73.04;98705.71;2807689;84;21178;-61
2021/03/11 15:32:26;;;;;;;11.85;7.33;;;;;;;8.40;72.52;98710.23;2807774;84;21150;-60
2021/03/11 15:36:31;;;;;;;9.93;7.83;;;;;;;8.39;71.97;98693.48;2805870;84;21163;-61
2021/03/11 15:40:34;;;;;;;9.48;8.13;;;;;;;8.37;72.46;98689.34;2814746;84;21131;-61
2021/03/11 15:44:37;;;;;;;14.40;9.43;;;;;;;8.35;72.68;98688.15;2818102;84;21172;-60
2021/03/11 15:48:40;;;;;;;14.63;11.03;;;;;;;8.36;72.83;98675.23;2816341;84;21152;-60
2021/03/11 15:52:45;;;;;;;20.50;11.08;;;;;;;8.35;73.29;98665.63;2816206;84;21136;-60
2021/03/11 15:56:48;;;;;;;19.80;13.65;;;;;;;8.38;73.38;98651.26;2816344;84;21650;-60
2021/03/11 16:00:51;;;;;;;19.07;12.60;;;;;;;8.33;73.04;98645.55;2818438;84;21167;-61
2021/03/11 16:04:54;;;;;;;20.40;13.70;;;;;;;8.28;73.42;98643.39;2832182;84;21124;-60
2021/03/11 16:08:57;;;;;;;20.00;13.80;;;;;;;8.23;73.55;98633.71;2832080;84;21561;-61
2021/03/11 16:13:00;;;;;;;18.15;13.75;;;;;;;8.19;73.63;98629.70;2832300;84;21562;-61
2021/03/11 16:17:03;;;;;;;29.10;16.17;;;;;;;8.13;73.73;98620.55;2832013;84;21159;-62
2021/03/11 16:21:09;;;;;;;20.68;16.27;;;;;;;8.06;73.95;98600.48;2832054;84;21131;-60
2021/03/11 16:25:13;;;;;;;28.83;19.90;;;;;;;7.97;74.39;98578.86;2827242;84;21176;-60
2021/03/11 16:29:16;;;;;;;23.52;15.45;;;;;;;8.01;74.51;98569.63;2813069;84;21184;-62
2021/03/11 16:33:22;;;;;;;33.23;20.97;;;;;;;8.02;74.45;98569.97;2813113;84;21164;-60
2021/03/11 16:37:27;;;;;;;27.82;18.45;;;;;;;8.00;74.31;98567.97;2813192;84;21156;-60
2021/03/11 16:41:30;;;;;;;23.75;19.32;;;;;;;7.94;74.46;98554.02;2813193;84;21609;-61
2021/03/11 16:45:33;;;;;;;22.75;18.82;;;;;;;7.88;74.73;98557.28;2813143;84;21161;-60
2021/03/11 16:49:36;;;;;;;23.02;15.60;;;;;;;7.82;75.20;98551.58;2812959;84;21113;-60
2021/03/11 16:53:41;;;;;;;28.00;20.77;;;;;;;7.83;75.12;98537.36;2812977;84;21161;-60
2021/03/11 16:57:45;;;;;;;22.15;16.25;;;;;;;7.75;75.33;98539.94;2813285;84;21168;-60
2021/03/11 17:01:49;;;;;;;32.55;19.40;;;;;;;7.76;75.28;98537.63;2812753;84;21172;-60
2021/03/11 17:05:52;;;;;;;22.37;17.35;;;;;;;7.73;75.31;98533.97;2813276;84;21157;-61
2021/03/11 17:09:55;;;;;;;28.38;19.40;;;;;;;7.67;75.52;98547.81;2813230;84;21148;-61
2021/03/11 17:13:58;;;;;;;26.00;17.52;;;;;;;7.62;75.70;98536.83;2789558;84;21156;-61
2021/03/11 17:18:06;;;;;;;20.92;15.63;;;;;;;7.63;75.70;98545.10;2813158;84;21125;-60
2021/03/11 17:22:11;;;;;;;27.70;19.48;;;;;;;7.61;75.84;98549.72;2812820;84;21599;-60
2021/03/11 17:26:14;;;;;;;24.32;17.10;;;;;;;7.55;76.22;98571.83;2821243;84;21134;-62
2021/03/11 17:30:18;;;;;;;24.55;19.73;;;;;;;7.56;76.47;98588.52;2831773;84;21151;-61
2021/03/11 17:34:23;;;;;;;24.52;18.52;;;;;;;7.60;76.43;98600.50;2831494;84;21132;-61
2021/03/11 17:38:26;;;;;;;24.25;18.25;;;;;;;7.63;76.50;98587.44;2831741;84;21124;-63
2021/03/11 17:42:29;;;;;;;24.98;17.10;;;;;;;7.69;76.46;98586.87;2831848;84;21123;-60
2021/03/11 17:46:33;;;;;;;27.65;20.45;;;;;;;7.75;76.34;98573.03;2831743;83;21158;-61
2021/03/11 17:50:37;;;;;;;22.70;16.97;;;;;;;7.83;76.18;98570.45;2831896;84;21581;-61
2021/03/11 17:54:40;;;;;;;23.02;16.75;;;;;;;7.93;76.18;98558.97;2831623;84;21132;-60
2021/03/11 17:58:45;;;;;;;30.00;17.77;;;;;;;7.98;76.33;98554.05;2831588;84;21171;-60
2021/03/11 18:02:49;;;;;;;25.05;17.45;;;;;;;8.03;76.35;98543.82;2831631;84;21594;-60
2021/03/11 18:06:54;;;;;;;21.73;17.30;;;;;;;8.13;76.42;98548.56;2828059;84;21081;-62
2021/03/11 18:10:58;;;;;;;18.82;15.30;;;;;;;8.24;77.12;98555.43;2832003;84;21474;-60
2021/03/11 18:15:02;;;;;;;20.70;17.35;;;;;;;8.32;77.47;98552.02;2832121;84;21183;-62
2021/03/11 18:19:07;;;;;;;26.33;18.07;;;;;;;8.31;77.46;98563.60;2831865;84;21143;-61
2021/03/11 18:23:10;;;;;;;22.32;18.27;;;;;;;8.30;77.39;98551.34;2831859;84;21570;-61
2021/03/11 18:27:13;;;;;;;28.25;18.07;;;;;;;8.26;77.56;98553.97;2832120;84;21163;-61
2021/03/11 18:31:16;;;;;;;22.10;17.73;;;;;;;8.22;77.78;98532.72;2827359;84;21147;-62
2021/03/11 18:35:20;;;;;;;24.15;17.57;;;;;;;8.25;78.04;98513.86;2807817;84;21198;-60
2021/03/11 18:39:23;;;;;;;21.12;14.75;;;;;;;8.33;78.36;98515.74;2807263;84;21167;-61
2021/03/11 18:43:26;;;;;;;24.63;16.60;;;;;;;8.43;78.45;98529.23;2799122;84;21167;-60
2021/03/11 18:47:29;;;;;;;27.87;16.23;;;;;;;8.46;77.90;98527.28;2766349;86;21586;-63
2021/03/11 18:51:33;;;;;;;23.95;16.87;;;;;;;8.39;76.97;98533.18;2807102;83;21178;-61
2021/03/11 18:55:38;;;;;;;22.65;15.05;;;;;;;8.21;76.95;98531.91;2811167;84;21611;-62
2021/03/11 18:59:41;;;;;;;27.65;17.15;;;;;;;8.07;76.97;98524.02;2807452;84;21576;-61
2021/03/11 19:03:45;;;;;;;23.83;17.98;;;;;;;8.05;76.81;98520.66;2807851;84;21160;-60